createdAt,value
2023-03-07T00:18:24.701Z,18.5
2023-03-07T00:48:24.383Z,18.5
2023-03-07T01:18:24.396Z,18.4
2023-03-07T01:48:24.698Z,18.3
2023-03-07T02:18:24.722Z,18.2
2023-03-07T02:48:24.674Z,18.1
2023-03-07T03:18:24.667Z,18.1
2023-03-07T03:48:24.426Z,18.1
2023-03-07T04:18:24.669Z,18.0
2023-03-07T04:48:24.713Z,18.1
2023-03-07T05:18:24.704Z,18.4
2023-03-07T05:48:24.434Z,18.4
2023-03-07T06:18:24.695Z,18.7
2023-03-07T06:48:24.667Z,18.9
2023-03-07T07:18:24.666Z,19.1
2023-03-07T07:48:24.711Z,19.3
2023-03-07T08:18:24.689Z,19.5
2023-03-07T08:48:24.698Z,19.6
2023-03-07T09:18:24.675Z,19.7
2023-03-07T09:48:24.670Z,19.8
2023-03-07T10:18:24.709Z,19.8
2023-03-07T10:48:24.667Z,19.9
2023-03-07T11:18:24.805Z,20.0
2023-03-07T11:48:24.649Z,20.0
2023-03-07T12:18:24.664Z,19.8
2023-03-07T12:48:24.729Z,19.8
2023-03-07T13:18:24.361Z,19.8
2023-03-07T13:48:24.666Z,19.7
2023-03-07T14:18:24.457Z,19.7
2023-03-07T14:48:24.792Z,19.6
2023-03-07T15:18:24.668Z,19.6
2023-03-07T15:48:24.405Z,19.6
2023-03-07T16:18:24.677Z,19.6
2023-03-07T16:48:24.674Z,19.6
2023-03-07T17:18:24.687Z,19.6
2023-03-07T17:48:24.704Z,19.6
2023-03-07T18:18:24.687Z,19.7
2023-03-07T18:48:24.676Z,19.7
2023-03-07T19:18:24.635Z,19.7
2023-03-07T19:48:24.349Z,19.7
2023-03-07T20:18:24.629Z,19.6
2023-03-07T20:48:24.627Z,19.5
2023-03-07T21:18:24.635Z,19.3
2023-03-07T21:48:24.635Z,19.1
2023-03-07T22:18:24.337Z,19.1
2023-03-07T22:48:24.643Z,18.9
2023-03-07T23:18:24.663Z,18.8
2023-03-07T23:48:24.664Z,18.7
